sensor_id;sensor_type;location;lat;lon;timestamp;P1;durP1;ratioP1;P2;durP2;ratioP2
71566;SDS011;59403;47.456;19.120;2023-07-31T00:00:21;4.65;;;3.08;;
71566;SDS011;59403;47.456;19.120;2023-07-31T00:02:48;3.78;;;3.30;;
71566;SDS011;59403;47.456;19.120;2023-07-31T00:05:17;3.92;;;3.00;;
71566;SDS011;59403;47.456;19.120;2023-07-31T00:07:44;4.50;;;3.22;;
71566;SDS011;59403;47.456;19.120;2023-07-31T00:10:10;3.80;;;3.13;;
71566;SDS011;59403;47.456;19.120;2023-07-31T00:12:37;3.85;;;3.10;;
71566;SDS011;59403;47.456;19.120;2023-07-31T00:15:05;3.37;;;3.08;;
71566;SDS011;59403;47.456;19.120;2023-07-31T00:17:32;3.78;;;3.47;;
71566;SDS011;59403;47.456;19.120;2023-07-31T00:19:59;4.55;;;3.30;;
71566;SDS011;59403;47.456;19.120;2023-07-31T00:22:27;4.60;;;3.30;;
71566;SDS011;59403;47.456;19.120;2023-07-31T00:24:55;3.58;;;3.03;;
71566;SDS011;59403;47.456;19.120;2023-07-31T00:27:22;4.57;;;3.10;;
71566;SDS011;59403;47.456;19.120;2023-07-31T00:29:49;3.50;;;2.78;;
71566;SDS011;59403;47.456;19.120;2023-07-31T00:32:16;3.90;;;3.37;;
71566;SDS011;59403;47.456;19.120;2023-07-31T00:34:43;3.73;;;3.10;;
71566;SDS011;59403;47.456;19.120;2023-07-31T00:37:10;4.28;;;3.05;;
71566;SDS011;59403;47.456;19.120;2023-07-31T00:39:38;3.53;;;2.90;;
71566;SDS011;59403;47.456;19.120;2023-07-31T00:42:05;4.12;;;3.47;;
71566;SDS011;59403;47.456;19.120;2023-07-31T00:44:33;4.40;;;3.40;;
71566;SDS011;59403;47.456;19.120;2023-07-31T00:47:00;3.97;;;3.20;;
71566;SDS011;59403;47.456;19.120;2023-07-31T00:49:27;5.45;;;3.20;;
71566;SDS011;59403;47.456;19.120;2023-07-31T00:51:54;4.12;;;3.42;;
71566;SDS011;59403;47.456;19.120;2023-07-31T00:54:22;4.15;;;2.83;;
71566;SDS011;59403;47.456;19.120;2023-07-31T00:56:51;4.15;;;3.30;;
71566;SDS011;59403;47.456;19.120;2023-07-31T00:59:20;4.27;;;3.10;;
71566;SDS011;59403;47.456;19.120;2023-07-31T01:07:07;5.80;;;3.15;;
71566;SDS011;59403;47.456;19.120;2023-07-31T01:09:40;4.28;;;3.28;;
71566;SDS011;59403;47.456;19.120;2023-07-31T01:12:15;4.27;;;2.77;;
71566;SDS011;59403;47.456;19.120;2023-07-31T01:14:50;3.35;;;2.80;;
71566;SDS011;59403;47.456;19.120;2023-07-31T01:17:18;3.75;;;2.90;;
71566;SDS011;59403;47.456;19.120;2023-07-31T01:19:45;3.25;;;2.47;;
71566;SDS011;59403;47.456;19.120;2023-07-31T01:22:21;4.22;;;2.92;;
71566;SDS011;59403;47.456;19.120;2023-07-31T01:24:59;5.13;;;2.70;;
71566;SDS011;59403;47.456;19.120;2023-07-31T01:27:43;2.90;;;2.60;;
71566;SDS011;59403;47.456;19.120;2023-07-31T01:30:21;3.55;;;3.12;;
71566;SDS011;59403;47.456;19.120;2023-07-31T01:32:51;4.90;;;3.03;;
71566;SDS011;59403;47.456;19.120;2023-07-31T01:35:21;3.90;;;2.87;;
71566;SDS011;59403;47.456;19.120;2023-07-31T01:37:48;3.73;;;2.70;;
71566;SDS011;59403;47.456;19.120;2023-07-31T01:40:18;3.47;;;2.35;;
71566;SDS011;59403;47.456;19.120;2023-07-31T01:42:46;3.33;;;2.58;;
71566;SDS011;59403;47.456;19.120;2023-07-31T01:45:13;3.97;;;3.15;;
71566;SDS011;59403;47.456;19.120;2023-07-31T01:47:40;4.68;;;3.17;;
71566;SDS011;59403;47.456;19.120;2023-07-31T01:50:07;4.70;;;2.90;;
71566;SDS011;59403;47.456;19.120;2023-07-31T01:52:35;4.35;;;3.17;;
71566;SDS011;59403;47.456;19.120;2023-07-31T01:55:02;5.25;;;3.42;;
71566;SDS011;59403;47.456;19.120;2023-07-31T01:57:29;4.35;;;3.15;;
71566;SDS011;59403;47.456;19.120;2023-07-31T01:59:58;19.37;;;5.20;;
71566;SDS011;59403;47.456;19.120;2023-07-31T02:02:25;13.00;;;4.37;;
71566;SDS011;59403;47.456;19.120;2023-07-31T02:04:52;7.47;;;3.97;;
71566;SDS011;59403;47.456;19.120;2023-07-31T02:07:21;3.70;;;2.72;;
71566;SDS011;59403;47.456;19.120;2023-07-31T02:09:48;6.00;;;3.22;;
71566;SDS011;59403;47.456;19.120;2023-07-31T02:12:15;5.80;;;2.87;;
71566;SDS011;59403;47.456;19.120;2023-07-31T02:14:42;4.70;;;2.87;;
71566;SDS011;59403;47.456;19.120;2023-07-31T02:17:10;3.70;;;3.10;;
71566;SDS011;59403;47.456;19.120;2023-07-31T02:19:37;19.30;;;5.25;;
71566;SDS011;59403;47.456;19.120;2023-07-31T02:22:04;9.95;;;3.87;;
71566;SDS011;59403;47.456;19.120;2023-07-31T02:24:31;5.05;;;3.55;;
71566;SDS011;59403;47.456;19.120;2023-07-31T02:26:58;4.60;;;3.40;;
71566;SDS011;59403;47.456;19.120;2023-07-31T02:29:25;4.97;;;2.70;;
71566;SDS011;59403;47.456;19.120;2023-07-31T02:31:52;4.03;;;3.40;;
71566;SDS011;59403;47.456;19.120;2023-07-31T02:34:20;4.40;;;3.28;;
71566;SDS011;59403;47.456;19.120;2023-07-31T02:36:47;4.90;;;3.28;;
71566;SDS011;59403;47.456;19.120;2023-07-31T02:39:14;3.80;;;3.10;;
71566;SDS011;59403;47.456;19.120;2023-07-31T02:41:50;4.57;;;3.35;;
71566;SDS011;59403;47.456;19.120;2023-07-31T02:44:17;3.70;;;3.17;;
71566;SDS011;59403;47.456;19.120;2023-07-31T02:46:45;5.18;;;3.37;;
71566;SDS011;59403;47.456;19.120;2023-07-31T02:49:12;3.72;;;3.15;;
71566;SDS011;59403;47.456;19.120;2023-07-31T02:51:40;3.50;;;3.10;;
71566;SDS011;59403;47.456;19.120;2023-07-31T02:54:07;4.32;;;3.00;;
71566;SDS011;59403;47.456;19.120;2023-07-31T02:56:34;7.60;;;3.33;;
71566;SDS011;59403;47.456;19.120;2023-07-31T02:59:01;5.03;;;2.90;;
71566;SDS011;59403;47.456;19.120;2023-07-31T03:01:28;6.40;;;2.80;;
71566;SDS011;59403;47.456;19.120;2023-07-31T03:03:54;3.43;;;2.67;;
71566;SDS011;59403;47.456;19.120;2023-07-31T03:06:22;3.67;;;2.70;;
71566;SDS011;59403;47.456;19.120;2023-07-31T03:08:50;3.83;;;2.58;;
71566;SDS011;59403;47.456;19.120;2023-07-31T03:11:17;3.30;;;2.75;;
71566;SDS011;59403;47.456;19.120;2023-07-31T03:13:44;7.35;;;2.92;;
71566;SDS011;59403;47.456;19.120;2023-07-31T03:16:11;4.20;;;2.63;;
71566;SDS011;59403;47.456;19.120;2023-07-31T03:18:38;3.78;;;3.05;;
71566;SDS011;59403;47.456;19.120;2023-07-31T03:21:05;4.00;;;3.20;;
71566;SDS011;59403;47.456;19.120;2023-07-31T03:23:31;6.32;;;2.95;;
71566;SDS011;59403;47.456;19.120;2023-07-31T03:26:00;3.85;;;2.65;;
71566;SDS011;59403;47.456;19.120;2023-07-31T03:28:28;4.17;;;2.90;;
71566;SDS011;59403;47.456;19.120;2023-07-31T03:30:55;3.40;;;2.78;;
71566;SDS011;59403;47.456;19.120;2023-07-31T03:33:22;3.80;;;2.90;;
71566;SDS011;59403;47.456;19.120;2023-07-31T03:35:49;4.70;;;2.92;;
71566;SDS011;59403;47.456;19.120;2023-07-31T03:38:16;3.20;;;2.80;;
71566;SDS011;59403;47.456;19.120;2023-07-31T03:40:43;3.33;;;2.77;;
71566;SDS011;59403;47.456;19.120;2023-07-31T03:43:11;2.97;;;2.42;;
71566;SDS011;59403;47.456;19.120;2023-07-31T03:45:38;3.53;;;2.47;;
71566;SDS011;59403;47.456;19.120;2023-07-31T03:48:05;3.35;;;2.40;;
71566;SDS011;59403;47.456;19.120;2023-07-31T03:50:33;3.17;;;2.60;;
71566;SDS011;59403;47.456;19.120;2023-07-31T03:53:00;3.13;;;2.37;;
71566;SDS011;59403;47.456;19.120;2023-07-31T03:55:27;3.78;;;1.98;;
71566;SDS011;59403;47.456;19.120;2023-07-31T03:57:54;4.10;;;2.80;;
71566;SDS011;59403;47.456;19.120;2023-07-31T04:00:22;3.42;;;2.70;;
71566;SDS011;59403;47.456;19.120;2023-07-31T04:02:49;3.30;;;2.33;;
71566;SDS011;59403;47.456;19.120;2023-07-31T04:05:16;4.60;;;2.50;;
71566;SDS011;59403;47.456;19.120;2023-07-31T04:07:43;3.00;;;2.40;;
71566;SDS011;59403;47.456;19.120;2023-07-31T04:10:10;3.72;;;2.15;;
71566;SDS011;59403;47.456;19.120;2023-07-31T04:12:37;4.65;;;2.20;;
71566;SDS011;59403;47.456;19.120;2023-07-31T04:15:04;3.50;;;2.25;;
71566;SDS011;59403;47.456;19.120;2023-07-31T04:17:33;3.83;;;2.67;;
71566;SDS011;59403;47.456;19.120;2023-07-31T04:19:59;3.40;;;2.35;;
71566;SDS011;59403;47.456;19.120;2023-07-31T04:22:27;5.62;;;2.55;;
71566;SDS011;59403;47.456;19.120;2023-07-31T04:24:54;2.80;;;2.20;;
71566;SDS011;59403;47.456;19.120;2023-07-31T04:27:21;3.85;;;2.50;;
71566;SDS011;59403;47.456;19.120;2023-07-31T04:29:48;4.37;;;2.47;;
71566;SDS011;59403;47.456;19.120;2023-07-31T04:32:15;3.62;;;2.20;;
71566;SDS011;59403;47.456;19.120;2023-07-31T04:34:44;4.47;;;2.30;;
71566;SDS011;59403;47.456;19.120;2023-07-31T04:37:10;2.12;;;1.90;;
71566;SDS011;59403;47.456;19.120;2023-07-31T04:39:38;4.40;;;2.15;;
71566;SDS011;59403;47.456;19.120;2023-07-31T04:42:05;3.33;;;1.90;;
71566;SDS011;59403;47.456;19.120;2023-07-31T04:44:32;2.87;;;2.22;;
71566;SDS011;59403;47.456;19.120;2023-07-31T04:46:59;4.65;;;2.03;;
71566;SDS011;59403;47.456;19.120;2023-07-31T04:49:27;4.82;;;2.00;;
71566;SDS011;59403;47.456;19.120;2023-07-31T04:51:55;5.55;;;2.30;;
71566;SDS011;59403;47.456;19.120;2023-07-31T04:54:22;3.00;;;1.60;;
71566;SDS011;59403;47.456;19.120;2023-07-31T04:56:49;4.12;;;1.58;;
71566;SDS011;59403;47.456;19.120;2023-07-31T04:59:17;3.33;;;1.70;;
71566;SDS011;59403;47.456;19.120;2023-07-31T05:01:44;2.10;;;1.20;;
71566;SDS011;59403;47.456;19.120;2023-07-31T05:04:12;3.17;;;1.60;;
71566;SDS011;59403;47.456;19.120;2023-07-31T05:06:39;4.37;;;1.67;;
71566;SDS011;59403;47.456;19.120;2023-07-31T05:09:07;2.35;;;1.55;;
71566;SDS011;59403;47.456;19.120;2023-07-31T05:11:35;3.53;;;1.95;;
71566;SDS011;59403;47.456;19.120;2023-07-31T05:14:02;2.35;;;1.40;;
71566;SDS011;59403;47.456;19.120;2023-07-31T05:16:29;3.35;;;1.62;;
71566;SDS011;59403;47.456;19.120;2023-07-31T05:18:56;2.83;;;1.53;;
71566;SDS011;59403;47.456;19.120;2023-07-31T05:21:22;3.47;;;1.90;;
71566;SDS011;59403;47.456;19.120;2023-07-31T05:23:49;4.70;;;1.65;;
71566;SDS011;59403;47.456;19.120;2023-07-31T05:26:18;3.00;;;1.30;;
71566;SDS011;59403;47.456;19.120;2023-07-31T05:28:44;2.35;;;1.62;;
71566;SDS011;59403;47.456;19.120;2023-07-31T05:31:11;2.37;;;1.47;;
71566;SDS011;59403;47.456;19.120;2023-07-31T05:33:38;8.60;;;1.65;;
71566;SDS011;59403;47.456;19.120;2023-07-31T05:36:05;3.00;;;1.70;;
71566;SDS011;59403;47.456;19.120;2023-07-31T05:38:32;3.97;;;1.98;;
71566;SDS011;59403;47.456;19.120;2023-07-31T05:40:59;3.33;;;1.58;;
71566;SDS011;59403;47.456;19.120;2023-07-31T05:43:27;1.90;;;1.20;;
71566;SDS011;59403;47.456;19.120;2023-07-31T05:45:54;4.00;;;1.58;;
71566;SDS011;59403;47.456;19.120;2023-07-31T05:48:21;3.37;;;1.70;;
71566;SDS011;59403;47.456;19.120;2023-07-31T05:50:47;4.12;;;1.55;;
71566;SDS011;59403;47.456;19.120;2023-07-31T05:53:14;4.18;;;1.85;;
71566;SDS011;59403;47.456;19.120;2023-07-31T05:55:41;2.40;;;1.27;;
71566;SDS011;59403;47.456;19.120;2023-07-31T05:58:08;5.93;;;1.42;;
71566;SDS011;59403;47.456;19.120;2023-07-31T06:00:36;4.78;;;1.65;;
71566;SDS011;59403;47.456;19.120;2023-07-31T06:03:03;5.60;;;1.52;;
71566;SDS011;59403;47.456;19.120;2023-07-31T06:05:30;2.90;;;1.42;;
71566;SDS011;59403;47.456;19.120;2023-07-31T06:07:57;2.90;;;1.20;;
71566;SDS011;59403;47.456;19.120;2023-07-31T06:10:24;2.60;;;1.25;;
71566;SDS011;59403;47.456;19.120;2023-07-31T06:12:51;3.67;;;1.50;;
71566;SDS011;59403;47.456;19.120;2023-07-31T06:15:19;3.67;;;1.48;;
71566;SDS011;59403;47.456;19.120;2023-07-31T06:17:47;2.50;;;1.40;;
71566;SDS011;59403;47.456;19.120;2023-07-31T06:20:14;3.63;;;1.50;;
71566;SDS011;59403;47.456;19.120;2023-07-31T06:22:41;3.12;;;1.23;;
71566;SDS011;59403;47.456;19.120;2023-07-31T06:25:08;3.83;;;1.73;;
71566;SDS011;59403;47.456;19.120;2023-07-31T06:27:35;2.45;;;1.23;;
71566;SDS011;59403;47.456;19.120;2023-07-31T06:30:02;2.42;;;1.48;;
71566;SDS011;59403;47.456;19.120;2023-07-31T06:32:29;5.40;;;1.30;;
71566;SDS011;59403;47.456;19.120;2023-07-31T06:34:58;2.97;;;1.40;;
71566;SDS011;59403;47.456;19.120;2023-07-31T06:37:24;3.35;;;1.40;;
71566;SDS011;59403;47.456;19.120;2023-07-31T06:39:51;8.27;;;1.80;;
71566;SDS011;59403;47.456;19.120;2023-07-31T06:42:18;3.30;;;1.52;;
71566;SDS011;59403;47.456;19.120;2023-07-31T06:44:46;3.40;;;1.23;;
71566;SDS011;59403;47.456;19.120;2023-07-31T06:47:12;3.22;;;1.00;;
71566;SDS011;59403;47.456;19.120;2023-07-31T06:49:39;2.92;;;1.23;;
71566;SDS011;59403;47.456;19.120;2023-07-31T06:52:08;2.53;;;1.42;;
71566;SDS011;59403;47.456;19.120;2023-07-31T06:54:36;4.43;;;1.60;;
71566;SDS011;59403;47.456;19.120;2023-07-31T06:57:03;2.63;;;1.30;;
71566;SDS011;59403;47.456;19.120;2023-07-31T06:59:30;3.40;;;1.05;;
71566;SDS011;59403;47.456;19.120;2023-07-31T07:01:57;3.97;;;1.80;;
71566;SDS011;59403;47.456;19.120;2023-07-31T07:04:24;2.97;;;1.62;;
71566;SDS011;59403;47.456;19.120;2023-07-31T07:06:52;2.87;;;1.73;;
71566;SDS011;59403;47.456;19.120;2023-07-31T07:09:20;3.00;;;1.33;;
71566;SDS011;59403;47.456;19.120;2023-07-31T07:11:47;3.95;;;1.55;;
71566;SDS011;59403;47.456;19.120;2023-07-31T07:14:13;3.20;;;1.40;;
71566;SDS011;59403;47.456;19.120;2023-07-31T07:16:41;2.55;;;1.50;;
71566;SDS011;59403;47.456;19.120;2023-07-31T07:19:07;3.03;;;1.50;;
71566;SDS011;59403;47.456;19.120;2023-07-31T07:21:34;4.73;;;1.83;;
71566;SDS011;59403;47.456;19.120;2023-07-31T07:24:01;3.28;;;1.60;;
71566;SDS011;59403;47.456;19.120;2023-07-31T07:26:29;3.05;;;1.80;;
71566;SDS011;59403;47.456;19.120;2023-07-31T07:28:56;3.20;;;1.40;;
71566;SDS011;59403;47.456;19.120;2023-07-31T07:31:23;4.15;;;1.77;;
71566;SDS011;59403;47.456;19.120;2023-07-31T07:33:50;3.93;;;1.60;;
71566;SDS011;59403;47.456;19.120;2023-07-31T07:36:17;3.35;;;2.20;;
71566;SDS011;59403;47.456;19.120;2023-07-31T07:38:44;4.22;;;1.75;;
71566;SDS011;59403;47.456;19.120;2023-07-31T07:41:11;2.40;;;1.55;;
71566;SDS011;59403;47.456;19.120;2023-07-31T07:43:39;4.45;;;1.95;;
71566;SDS011;59403;47.456;19.120;2023-07-31T07:46:06;4.53;;;1.70;;
71566;SDS011;59403;47.456;19.120;2023-07-31T07:48:33;5.30;;;1.92;;
71566;SDS011;59403;47.456;19.120;2023-07-31T07:51:00;3.55;;;1.87;;
71566;SDS011;59403;47.456;19.120;2023-07-31T07:53:26;2.90;;;1.73;;
71566;SDS011;59403;47.456;19.120;2023-07-31T07:55:53;3.20;;;1.70;;
71566;SDS011;59403;47.456;19.120;2023-07-31T07:58:20;3.50;;;1.77;;
71566;SDS011;59403;47.456;19.120;2023-07-31T08:00:51;3.72;;;1.75;;
71566;SDS011;59403;47.456;19.120;2023-07-31T08:03:18;3.17;;;1.70;;
71566;SDS011;59403;47.456;19.120;2023-07-31T08:05:45;3.42;;;1.45;;
71566;SDS011;59403;47.456;19.120;2023-07-31T08:08:13;8.57;;;1.85;;
71566;SDS011;59403;47.456;19.120;2023-07-31T08:10:41;3.07;;;1.53;;
71566;SDS011;59403;47.456;19.120;2023-07-31T08:13:09;3.72;;;1.50;;
71566;SDS011;59403;47.456;19.120;2023-07-31T08:15:36;5.12;;;1.62;;
71566;SDS011;59403;47.456;19.120;2023-07-31T08:18:04;3.25;;;1.60;;
71566;SDS011;59403;47.456;19.120;2023-07-31T08:20:31;4.00;;;2.08;;
71566;SDS011;59403;47.456;19.120;2023-07-31T08:22:58;7.03;;;1.60;;
71566;SDS011;59403;47.456;19.120;2023-07-31T08:25:25;4.45;;;1.50;;
71566;SDS011;59403;47.456;19.120;2023-07-31T08:27:52;4.68;;;1.70;;
71566;SDS011;59403;47.456;19.120;2023-07-31T08:30:19;2.83;;;1.80;;
71566;SDS011;59403;47.456;19.120;2023-07-31T08:32:46;2.55;;;1.48;;
71566;SDS011;59403;47.456;19.120;2023-07-31T08:35:14;3.73;;;1.63;;
71566;SDS011;59403;47.456;19.120;2023-07-31T08:37:41;6.25;;;1.60;;
71566;SDS011;59403;47.456;19.120;2023-07-31T08:40:08;4.00;;;2.10;;
71566;SDS011;59403;47.456;19.120;2023-07-31T08:42:42;3.17;;;1.52;;
71566;SDS011;59403;47.456;19.120;2023-07-31T08:45:11;4.25;;;1.48;;
71566;SDS011;59403;47.456;19.120;2023-07-31T08:47:40;3.57;;;1.63;;
71566;SDS011;59403;47.456;19.120;2023-07-31T08:50:08;2.95;;;1.73;;
71566;SDS011;59403;47.456;19.120;2023-07-31T08:52:38;3.67;;;1.90;;
71566;SDS011;59403;47.456;19.120;2023-07-31T08:55:06;3.50;;;1.55;;
71566;SDS011;59403;47.456;19.120;2023-07-31T08:57:34;5.20;;;1.98;;
71566;SDS011;59403;47.456;19.120;2023-07-31T09:00:02;2.70;;;1.53;;
71566;SDS011;59403;47.456;19.120;2023-07-31T09:02:31;2.70;;;1.60;;
71566;SDS011;59403;47.456;19.120;2023-07-31T09:05:04;2.50;;;1.52;;
71566;SDS011;59403;47.456;19.120;2023-07-31T09:07:32;4.85;;;1.67;;
71566;SDS011;59403;47.456;19.120;2023-07-31T09:10:02;3.53;;;1.80;;
71566;SDS011;59403;47.456;19.120;2023-07-31T09:12:31;3.50;;;1.50;;
71566;SDS011;59403;47.456;19.120;2023-07-31T09:14:58;4.10;;;1.58;;
71566;SDS011;59403;47.456;19.120;2023-07-31T09:17:31;2.03;;;1.62;;
71566;SDS011;59403;47.456;19.120;2023-07-31T09:20:01;3.40;;;1.65;;
71566;SDS011;59403;47.456;19.120;2023-07-31T09:22:39;2.28;;;1.80;;
71566;SDS011;59403;47.456;19.120;2023-07-31T09:25:15;4.73;;;1.47;;
71566;SDS011;59403;47.456;19.120;2023-07-31T09:27:46;3.50;;;1.40;;
71566;SDS011;59403;47.456;19.120;2023-07-31T09:30:14;3.45;;;1.92;;
71566;SDS011;59403;47.456;19.120;2023-07-31T09:32:41;9.52;;;1.50;;
71566;SDS011;59403;47.456;19.120;2023-07-31T09:35:19;3.10;;;2.10;;
71566;SDS011;59403;47.456;19.120;2023-07-31T09:37:50;6.30;;;1.53;;
71566;SDS011;59403;47.456;19.120;2023-07-31T09:40:28;3.35;;;1.37;;
71566;SDS011;59403;47.456;19.120;2023-07-31T09:42:56;3.40;;;1.50;;
71566;SDS011;59403;47.456;19.120;2023-07-31T09:45:24;2.83;;;1.83;;
71566;SDS011;59403;47.456;19.120;2023-07-31T09:47:52;3.78;;;1.75;;
71566;SDS011;59403;47.456;19.120;2023-07-31T09:50:20;3.43;;;1.50;;
71566;SDS011;59403;47.456;19.120;2023-07-31T09:52:48;4.22;;;1.90;;
71566;SDS011;59403;47.456;19.120;2023-07-31T09:55:15;3.37;;;1.52;;
71566;SDS011;59403;47.456;19.120;2023-07-31T09:57:43;4.82;;;1.58;;
71566;SDS011;59403;47.456;19.120;2023-07-31T10:00:12;4.07;;;1.80;;
71566;SDS011;59403;47.456;19.120;2023-07-31T10:02:40;4.27;;;1.70;;
71566;SDS011;59403;47.456;19.120;2023-07-31T10:05:07;4.90;;;1.58;;
71566;SDS011;59403;47.456;19.120;2023-07-31T10:07:36;3.20;;;2.33;;
71566;SDS011;59403;47.456;19.120;2023-07-31T10:10:04;6.97;;;2.28;;
71566;SDS011;59403;47.456;19.120;2023-07-31T10:12:34;4.78;;;2.10;;
71566;SDS011;59403;47.456;19.120;2023-07-31T10:15:04;2.83;;;1.60;;
71566;SDS011;59403;47.456;19.120;2023-07-31T10:17:32;5.18;;;1.70;;
71566;SDS011;59403;47.456;19.120;2023-07-31T10:20:01;3.90;;;2.08;;
71566;SDS011;59403;47.456;19.120;2023-07-31T10:22:30;6.10;;;2.20;;
71566;SDS011;59403;47.456;19.120;2023-07-31T10:24:57;3.78;;;1.77;;
71566;SDS011;59403;47.456;19.120;2023-07-31T10:27:25;4.83;;;1.97;;
71566;SDS011;59403;47.456;19.120;2023-07-31T10:29:52;3.55;;;1.65;;
71566;SDS011;59403;47.456;19.120;2023-07-31T10:32:23;3.87;;;2.03;;
71566;SDS011;59403;47.456;19.120;2023-07-31T10:34:51;4.12;;;1.30;;
71566;SDS011;59403;47.456;19.120;2023-07-31T10:37:22;6.97;;;2.10;;
71566;SDS011;59403;47.456;19.120;2023-07-31T10:39:56;4.87;;;1.20;;
71566;SDS011;59403;47.456;19.120;2023-07-31T10:42:29;4.75;;;1.60;;
71566;SDS011;59403;47.456;19.120;2023-07-31T10:44:57;4.25;;;1.95;;
71566;SDS011;59403;47.456;19.120;2023-07-31T10:47:26;3.35;;;1.67;;
71566;SDS011;59403;47.456;19.120;2023-07-31T10:50:06;4.15;;;1.62;;
71566;SDS011;59403;47.456;19.120;2023-07-31T10:52:38;3.33;;;1.77;;
71566;SDS011;59403;47.456;19.120;2023-07-31T10:55:15;5.62;;;1.67;;
71566;SDS011;59403;47.456;19.120;2023-07-31T10:57:52;7.35;;;2.15;;
71566;SDS011;59403;47.456;19.120;2023-07-31T11:00:20;3.70;;;2.08;;
71566;SDS011;59403;47.456;19.120;2023-07-31T11:02:57;4.32;;;1.70;;
71566;SDS011;59403;47.456;19.120;2023-07-31T11:05:40;4.40;;;1.73;;
71566;SDS011;59403;47.456;19.120;2023-07-31T11:08:13;3.28;;;1.27;;
71566;SDS011;59403;47.456;19.120;2023-07-31T11:10:41;3.75;;;1.60;;
71566;SDS011;59403;47.456;19.120;2023-07-31T11:13:08;4.03;;;1.55;;
71566;SDS011;59403;47.456;19.120;2023-07-31T11:15:35;6.57;;;1.77;;
71566;SDS011;59403;47.456;19.120;2023-07-31T11:18:03;3.20;;;1.60;;
71566;SDS011;59403;47.456;19.120;2023-07-31T11:20:33;3.50;;;1.58;;
71566;SDS011;59403;47.456;19.120;2023-07-31T11:23:01;4.85;;;1.62;;
71566;SDS011;59403;47.456;19.120;2023-07-31T11:25:29;4.97;;;1.87;;
71566;SDS011;59403;47.456;19.120;2023-07-31T11:27:56;3.40;;;1.67;;
71566;SDS011;59403;47.456;19.120;2023-07-31T11:30:24;3.53;;;1.33;;
71566;SDS011;59403;47.456;19.120;2023-07-31T11:32:51;2.90;;;1.58;;
71566;SDS011;59403;47.456;19.120;2023-07-31T11:35:19;5.68;;;1.73;;
71566;SDS011;59403;47.456;19.120;2023-07-31T11:37:46;4.07;;;1.15;;
71566;SDS011;59403;47.456;19.120;2023-07-31T11:40:13;2.67;;;2.05;;
71566;SDS011;59403;47.456;19.120;2023-07-31T11:42:41;3.33;;;1.70;;
71566;SDS011;59403;47.456;19.120;2023-07-31T11:45:08;5.80;;;1.92;;
71566;SDS011;59403;47.456;19.120;2023-07-31T11:47:36;4.93;;;2.05;;
71566;SDS011;59403;47.456;19.120;2023-07-31T11:50:04;3.17;;;1.73;;
71566;SDS011;59403;47.456;19.120;2023-07-31T11:52:36;3.50;;;1.73;;
71566;SDS011;59403;47.456;19.120;2023-07-31T11:55:07;4.70;;;1.80;;
71566;SDS011;59403;47.456;19.120;2023-07-31T11:57:36;2.90;;;1.50;;
71566;SDS011;59403;47.456;19.120;2023-07-31T12:00:06;10.85;;;2.20;;
71566;SDS011;59403;47.456;19.120;2023-07-31T12:02:36;4.47;;;2.00;;
71566;SDS011;59403;47.456;19.120;2023-07-31T12:05:05;7.10;;;2.37;;
71566;SDS011;59403;47.456;19.120;2023-07-31T12:07:46;4.67;;;1.63;;
71566;SDS011;59403;47.456;19.120;2023-07-31T12:10:27;4.65;;;2.00;;
71566;SDS011;59403;47.456;19.120;2023-07-31T12:12:56;5.03;;;1.85;;
71566;SDS011;59403;47.456;19.120;2023-07-31T12:15:36;3.67;;;1.65;;
71566;SDS011;59403;47.456;19.120;2023-07-31T12:18:05;2.45;;;1.70;;
71566;SDS011;59403;47.456;19.120;2023-07-31T12:20:33;4.93;;;2.17;;
71566;SDS011;59403;47.456;19.120;2023-07-31T12:23:02;6.93;;;1.77;;
71566;SDS011;59403;47.456;19.120;2023-07-31T12:25:30;5.20;;;1.65;;
71566;SDS011;59403;47.456;19.120;2023-07-31T12:27:57;2.92;;;2.03;;
71566;SDS011;59403;47.456;19.120;2023-07-31T12:30:28;2.85;;;1.80;;
71566;SDS011;59403;47.456;19.120;2023-07-31T12:32:55;3.87;;;1.47;;
71566;SDS011;59403;47.456;19.120;2023-07-31T12:35:22;3.35;;;1.85;;
71566;SDS011;59403;47.456;19.120;2023-07-31T12:37:49;4.35;;;2.05;;
71566;SDS011;59403;47.456;19.120;2023-07-31T12:40:17;3.87;;;1.60;;
71566;SDS011;59403;47.456;19.120;2023-07-31T12:42:44;4.78;;;1.90;;
71566;SDS011;59403;47.456;19.120;2023-07-31T12:45:11;4.60;;;1.57;;
71566;SDS011;59403;47.456;19.120;2023-07-31T12:47:38;4.70;;;1.95;;
71566;SDS011;59403;47.456;19.120;2023-07-31T12:50:05;3.95;;;2.12;;
71566;SDS011;59403;47.456;19.120;2023-07-31T12:52:33;2.20;;;1.83;;
71566;SDS011;59403;47.456;19.120;2023-07-31T12:55:00;3.05;;;1.58;;
71566;SDS011;59403;47.456;19.120;2023-07-31T12:57:28;4.90;;;1.57;;
71566;SDS011;59403;47.456;19.120;2023-07-31T12:59:55;4.25;;;1.70;;
71566;SDS011;59403;47.456;19.120;2023-07-31T13:02:22;4.70;;;1.60;;
71566;SDS011;59403;47.456;19.120;2023-07-31T13:04:49;3.97;;;2.17;;
71566;SDS011;59403;47.456;19.120;2023-07-31T13:07:16;2.60;;;1.70;;
71566;SDS011;59403;47.456;19.120;2023-07-31T13:09:43;4.47;;;1.73;;
71566;SDS011;59403;47.456;19.120;2023-07-31T13:12:10;4.20;;;1.80;;
71566;SDS011;59403;47.456;19.120;2023-07-31T13:14:38;4.65;;;1.90;;
71566;SDS011;59403;47.456;19.120;2023-07-31T13:17:05;5.60;;;1.77;;
71566;SDS011;59403;47.456;19.120;2023-07-31T13:19:32;5.25;;;2.05;;
71566;SDS011;59403;47.456;19.120;2023-07-31T13:21:59;3.00;;;1.70;;
71566;SDS011;59403;47.456;19.120;2023-07-31T13:24:26;2.40;;;1.70;;
71566;SDS011;59403;47.456;19.120;2023-07-31T13:26:53;4.25;;;2.28;;
71566;SDS011;59403;47.456;19.120;2023-07-31T13:29:20;4.57;;;2.37;;
71566;SDS011;59403;47.456;19.120;2023-07-31T13:31:48;3.30;;;2.12;;
71566;SDS011;59403;47.456;19.120;2023-07-31T13:34:15;4.33;;;1.27;;
71566;SDS011;59403;47.456;19.120;2023-07-31T13:36:42;3.95;;;2.08;;
71566;SDS011;59403;47.456;19.120;2023-07-31T13:39:09;4.43;;;2.25;;
71566;SDS011;59403;47.456;19.120;2023-07-31T13:41:35;3.17;;;1.65;;
71566;SDS011;59403;47.456;19.120;2023-07-31T13:44:03;3.78;;;2.08;;
71566;SDS011;59403;47.456;19.120;2023-07-31T13:46:30;4.73;;;1.70;;
71566;SDS011;59403;47.456;19.120;2023-07-31T13:48:58;5.00;;;2.22;;
71566;SDS011;59403;47.456;19.120;2023-07-31T13:51:26;2.67;;;2.33;;
71566;SDS011;59403;47.456;19.120;2023-07-31T13:53:53;4.70;;;2.40;;
71566;SDS011;59403;47.456;19.120;2023-07-31T13:56:20;8.27;;;2.60;;
71566;SDS011;59403;47.456;19.120;2023-07-31T13:58:47;4.10;;;2.63;;
71566;SDS011;59403;47.456;19.120;2023-07-31T14:01:14;4.85;;;2.75;;
71566;SDS011;59403;47.456;19.120;2023-07-31T14:03:41;3.90;;;2.08;;
71566;SDS011;59403;47.456;19.120;2023-07-31T14:06:09;7.68;;;2.40;;
71566;SDS011;59403;47.456;19.120;2023-07-31T14:08:36;2.62;;;1.70;;
71566;SDS011;59403;47.456;19.120;2023-07-31T14:11:03;5.97;;;1.50;;
71566;SDS011;59403;47.456;19.120;2023-07-31T14:13:30;3.00;;;1.05;;
71566;SDS011;59403;47.456;19.120;2023-07-31T14:15:57;3.45;;;1.85;;
71566;SDS011;59403;47.456;19.120;2023-07-31T14:18:24;4.35;;;2.10;;
71566;SDS011;59403;47.456;19.120;2023-07-31T14:20:51;3.70;;;1.70;;
71566;SDS011;59403;47.456;19.120;2023-07-31T14:23:19;4.27;;;1.50;;
71566;SDS011;59403;47.456;19.120;2023-07-31T14:25:46;3.53;;;1.60;;
71566;SDS011;59403;47.456;19.120;2023-07-31T14:28:13;3.45;;;2.03;;
71566;SDS011;59403;47.456;19.120;2023-07-31T14:30:40;2.50;;;1.35;;
71566;SDS011;59403;47.456;19.120;2023-07-31T14:33:07;4.07;;;1.70;;
71566;SDS011;59403;47.456;19.120;2023-07-31T14:35:34;3.83;;;1.60;;
71566;SDS011;59403;47.456;19.120;2023-07-31T14:38:01;3.95;;;1.35;;
71566;SDS011;59403;47.456;19.120;2023-07-31T14:40:29;4.78;;;2.10;;
71566;SDS011;59403;47.456;19.120;2023-07-31T14:42:56;5.55;;;1.48;;